首页
METAR-TAF:

METAR-TAF

机场 :

迪比克, 艾奥瓦州, 美国

纬度: 42-23-52N, 经度: 090-42-13W, 海拔: 328米

当前天气观测

该预报发布于26分钟前的01:53 UTC
风速4节,风向南转西南
温度 -4°C
湿度 86%
气压 1017 hPa
能見度: 11.3公里
少量云层高于1200英尺
阴天层高于3000英尺

METAR: KDBQ 140153Z 21004KT 7SM FEW012 OVC030 M04/M06 A3002 RMK AO2 SLP185 T10441061

时间: 20:19 (02:19 UTC)

预报

该预报发布于2小时和59分钟前的23:20 UTC
预报有效从14日的 00点(UTC)到 14日的 24点(UTC)
风速5节,风向西南
能見度: 10公里
阴天层高于3500英尺
小雪
从 14日的 0300点(UTC)
风速6节,风向北转西北
能見度: 10公里
阴天层高于2500英尺
从 14日的 1200点(UTC)
风速7节,风向西北
能見度: 10公里
阴天层高于4000英尺
从 14日的 1600点(UTC)
风速7节,风向西北
能見度: 10公里
散云层高于8000英尺

TAF: KDBQ 132320Z 1400/1424 23005KT P6SM -SN OVC035 FM140300 34006KT P6SM OVC025 FM141200 32007KT P6SM OVC040 FM141600 32007KT P6SM SCT080

超过4000个机场的气象观测和天气预报(METAR&TAF报告)。

可查询的气象台以黄色和红色小点在地图上表示。

将鼠标移到小点上方,可查看气象台名称。

然后点击查看天气观测和预报。

如需切换地图:点击带黑十字的绿色按钮放大地图;点击带横线的绿色按钮缩小地图;或者点击绿色箭头查看邻近地区的地图。


METAR-TAF: